createdAt,value
2019-04-27T00:01:24.845Z,98723.37
2019-04-27T00:04:27.333Z,98733.75
2019-04-27T00:07:07.173Z,98733.78
2019-04-27T00:09:50.223Z,98735.92
2019-04-27T00:12:24.747Z,98735.63
2019-04-27T00:14:58.143Z,98734.82
2019-04-27T00:17:49.700Z,98732.09
2019-04-27T00:20:43.385Z,98735.92
2019-04-27T00:23:23.598Z,98743.75
2019-04-27T00:25:58.067Z,98746.78
2019-04-27T00:28:33.207Z,98745.23
2019-04-27T00:31:07.708Z,98749.05
2019-04-27T00:33:43.447Z,98753.91
2019-04-27T00:36:35.229Z,98757.20
2019-04-27T00:39:29.108Z,98753.66
2019-04-27T00:42:03.824Z,98765.11
2019-04-27T00:44:38.401Z,98761.30
2019-04-27T00:47:13.782Z,98765.63
2019-04-27T00:49:48.152Z,98769.20
2019-04-27T00:52:24.023Z,98769.72
2019-04-27T00:54:58.999Z,98769.69
2019-04-27T00:57:55.120Z,98769.80
2019-04-27T01:01:04.103Z,98774.20
2019-04-27T01:03:43.376Z,98772.54
2019-04-27T01:06:17.915Z,98781.03
2019-04-27T01:08:53.205Z,98778.30
2019-04-27T01:11:27.854Z,98785.14
2019-04-27T01:14:03.894Z,98783.48
2019-04-27T01:16:39.189Z,98787.88
2019-04-27T01:19:14.016Z,98794.47
2019-04-27T01:21:49.651Z,98796.68
2019-04-27T01:24:23.842Z,98798.52
2019-04-27T01:27:23.174Z,98798.73
2019-04-27T01:29:58.819Z,98803.69
2019-04-27T01:32:34.021Z,98809.97
2019-04-27T01:35:08.713Z,98810.31
2019-04-27T01:37:43.921Z,98813.05
2019-04-27T01:40:19.349Z,98817.14
2019-04-27T01:42:54.504Z,98814.16
2019-04-27T01:45:29.125Z,98825.09
2019-04-27T01:48:03.601Z,98825.91
2019-04-27T01:50:39.192Z,98828.42
2019-04-27T01:53:14.090Z,98828.64
2019-04-27T01:55:49.120Z,98837.56
2019-04-27T01:58:24.135Z,98839.66
2019-04-27T02:01:26.076Z,98839.27
2019-04-27T02:04:22.804Z,98843.13
2019-04-27T02:06:59.244Z,98844.49
2019-04-27T02:09:34.631Z,98851.67
2019-04-27T02:12:09.417Z,98860.34
2019-04-27T02:14:44.712Z,98860.60
2019-04-27T02:17:19.310Z,98862.22
2019-04-27T02:19:54.508Z,98863.42
2019-04-27T02:22:29.677Z,98868.84
2019-04-27T02:25:04.816Z,98868.03
2019-04-27T02:27:40.984Z,98872.20
2019-04-27T02:30:52.278Z,98868.20
2019-04-27T02:33:34.262Z,98875.38
2019-04-27T02:36:14.599Z,98873.41
2019-04-27T02:38:44.746Z,98877.60
2019-04-27T02:41:19.890Z,98881.75
2019-04-27T02:44:01.726Z,98881.28
2019-04-27T02:46:36.125Z,98881.84
2019-04-27T02:49:10.815Z,98892.75
2019-04-27T02:52:06.129Z,98897.91
2019-04-27T02:54:40.430Z,98901.81
2019-04-27T02:57:14.781Z,98903.03
2019-04-27T02:59:50.273Z,98901.09
2019-04-27T03:02:34.250Z,98900.55
2019-04-27T03:05:12.690Z,98902.47
2019-04-27T03:07:44.976Z,98903.08
2019-04-27T03:10:19.975Z,98904.44
2019-04-27T03:13:23.700Z,98907.12
2019-04-27T03:16:32.095Z,98916.16
2019-04-27T03:19:34.364Z,98916.39
2019-04-27T03:22:29.565Z,98915.89
2019-04-27T03:25:30.350Z,98922.52
2019-04-27T03:28:10.971Z,98918.66
2019-04-27T03:30:45.987Z,98923.22
2019-04-27T03:33:22.309Z,98926.23
2019-04-27T03:35:56.671Z,98926.57
2019-04-27T03:38:30.962Z,98930.38
2019-04-27T03:41:05.458Z,98925.61
2019-04-27T03:43:40.364Z,98924.69
2019-04-27T03:46:14.933Z,98925.87
2019-04-27T03:48:49.817Z,98925.00
2019-04-27T03:51:42.785Z,98922.09
2019-04-27T03:54:22.458Z,98925.69
2019-04-27T03:57:15.778Z,98927.11
2019-04-27T04:00:00.311Z,98926.39
2019-04-27T04:02:36.489Z,98928.58
2019-04-27T04:05:10.833Z,98925.60
2019-04-27T04:07:45.241Z,98925.39
2019-04-27T04:10:20.100Z,98925.21
2019-04-27T04:13:02.778Z,98927.92
2019-04-27T04:15:49.561Z,98931.02
2019-04-27T04:18:25.898Z,98928.06
2019-04-27T04:21:00.570Z,98929.46
2019-04-27T04:23:34.967Z,98922.62
2019-04-27T04:26:09.851Z,98928.14
2019-04-27T04:28:44.143Z,98919.98
2019-04-27T04:31:20.783Z,98923.05
2019-04-27T04:33:55.157Z,98917.50
2019-04-27T04:36:30.297Z,98922.07
2019-04-27T04:39:19.836Z,98917.50
2019-04-27T04:42:10.354Z,98917.50
2019-04-27T04:45:21.625Z,98917.50
2019-04-27T04:52:42.480Z,98921.25
2019-04-27T04:55:16.547Z,98921.25
2019-04-27T04:57:50.787Z,98908.84
2019-04-27T05:00:25.344Z,98912.16
2019-04-27T05:02:59.832Z,98915.48
2019-04-27T05:05:34.340Z,98909.58
2019-04-27T05:08:09.218Z,98907.12
2019-04-27T05:10:43.702Z,98905.19
2019-04-27T05:13:19.329Z,98898.59
2019-04-27T05:15:53.766Z,98896.59
2019-04-27T05:18:29.298Z,98894.39
2019-04-27T05:21:09.369Z,98895.23
2019-04-27T05:23:43.588Z,98892.47
2019-04-27T05:26:18.997Z,98891.09
2019-04-27T05:28:54.213Z,98882.87
2019-04-27T05:31:29.400Z,98887.31
2019-04-27T05:34:06.704Z,98886.20
2019-04-27T05:36:48.393Z,98884.83
2019-04-27T05:39:18.023Z,98878.52
2019-04-27T05:41:52.808Z,98877.15
2019-04-27T05:44:48.858Z,98879.34
2019-04-27T05:47:48.433Z,98877.98
2019-04-27T05:50:22.066Z,98880.73
2019-04-27T05:52:59.708Z,98873.31
2019-04-27T05:55:34.595Z,98868.91
2019-04-27T05:58:09.397Z,98869.73
2019-04-27T06:00:44.281Z,98859.03
2019-04-27T06:03:20.859Z,98863.44
2019-04-27T06:05:54.799Z,98858.48
2019-04-27T06:08:29.512Z,98853.55
2019-04-27T06:11:03.832Z,98845.83
2019-04-27T06:13:39.233Z,98845.03
2019-04-27T06:16:13.798Z,98847.50
2019-04-27T06:18:49.309Z,98842.01
2019-04-27T06:21:23.735Z,98828.80
2019-04-27T06:23:58.863Z,98824.96
2019-04-27T06:26:33.366Z,98824.69
2019-04-27T06:29:09.525Z,98824.69
2019-04-27T06:31:44.683Z,98821.66
2019-04-27T06:34:19.537Z,98820.27
2019-04-27T06:36:53.705Z,98812.86
2019-04-27T06:39:29.922Z,98811.20
2019-04-27T06:42:15.931Z,98808.98
2019-04-27T06:44:40.862Z,98804.86
2019-04-27T06:47:15.678Z,98800.45
2019-04-27T06:49:50.907Z,98791.40
2019-04-27T06:52:25.190Z,98789.75
2019-04-27T06:55:00.596Z,98789.19
2019-04-27T06:57:35.271Z,98775.47
2019-04-27T07:00:10.336Z,98774.91
2019-04-27T07:02:45.584Z,98769.08
2019-04-27T07:05:20.529Z,98766.30
2019-04-27T07:07:55.271Z,98770.41
2019-04-27T07:10:30.113Z,98765.16
2019-04-27T07:13:04.456Z,98763.54
2019-04-27T07:15:40.061Z,98753.10
2019-04-27T07:18:14.474Z,98748.97
2019-04-27T07:20:49.290Z,98751.45
2019-04-27T07:23:23.478Z,98743.47
2019-04-27T07:25:59.828Z,98742.34
2019-04-27T07:28:34.883Z,98734.36
2019-04-27T07:31:10.478Z,98724.20
2019-04-27T07:34:10.485Z,98724.72
2019-04-27T07:36:55.223Z,98716.99
2019-04-27T07:39:34.410Z,98709.83
2019-04-27T07:42:09.131Z,98701.28
2019-04-27T07:44:51.501Z,98705.68
2019-04-27T07:47:31.066Z,98707.58
2019-04-27T07:50:09.589Z,98695.18
2019-04-27T07:52:44.388Z,98686.91
2019-04-27T07:55:18.837Z,98683.59
2019-04-27T07:57:56.184Z,98683.59
2019-04-27T08:00:30.740Z,98671.45
2019-04-27T08:03:05.838Z,98664.03
2019-04-27T08:05:40.505Z,98664.03
2019-04-27T08:08:15.968Z,98667.87
2019-04-27T08:10:54.649Z,98664.27
2019-04-27T08:13:29.435Z,98652.39
2019-04-27T08:16:04.500Z,98660.12
2019-04-27T08:18:39.709Z,98643.02
2019-04-27T08:21:14.437Z,98631.14
2019-04-27T08:23:49.115Z,98625.83
2019-04-27T08:26:37.177Z,98630.80
2019-04-27T08:29:25.628Z,98620.03
2019-04-27T08:32:07.313Z,98624.09
2019-04-27T08:34:43.429Z,98613.92
2019-04-27T08:37:19.565Z,98608.17
2019-04-27T08:39:56.153Z,98608.17
2019-04-27T08:42:32.013Z,98604.28
2019-04-27T08:45:09.428Z,98610.62
2019-04-27T08:47:45.474Z,98590.78
2019-04-27T08:50:21.595Z,98599.84
2019-04-27T08:52:57.718Z,98588.50
2019-04-27T08:55:35.142Z,98574.21
2019-04-27T08:58:11.392Z,98574.21
2019-04-27T09:00:49.063Z,98583.11
2019-04-27T09:03:25.897Z,98578.91
2019-04-27T09:06:04.079Z,98568.23
2019-04-27T09:08:46.740Z,98576.44
2019-04-27T09:11:40.202Z,98558.84
2019-04-27T09:14:24.981Z,98541.12
2019-04-27T09:17:29.179Z,98541.14
2019-04-27T09:20:25.361Z,98547.88
2019-04-27T09:23:01.374Z,98541.81
2019-04-27T09:25:41.038Z,98539.59
2019-04-27T09:28:20.171Z,98530.21
2019-04-27T09:30:58.232Z,98533.19
2019-04-27T09:33:34.978Z,98524.91
2019-04-27T09:36:16.664Z,98527.30
2019-04-27T09:38:50.277Z,98524.83
2019-04-27T09:41:26.178Z,98521.68
2019-04-27T09:44:02.574Z,98515.63
2019-04-27T09:46:37.261Z,98510.13
2019-04-27T09:49:12.176Z,98506.41
2019-04-27T09:51:49.785Z,98500.09
2019-04-27T09:54:24.016Z,98501.77
2019-04-27T09:56:59.809Z,98504.71
2019-04-27T09:59:34.348Z,98496.39
2019-04-27T10:02:09.259Z,98497.20
2019-04-27T10:04:43.321Z,98500.70
2019-04-27T10:07:17.774Z,98488.97
2019-04-27T10:09:52.511Z,98494.81
2019-04-27T10:12:27.319Z,98501.34
2019-04-27T10:15:03.028Z,98497.03
2019-04-27T10:17:45.554Z,98490.21
2019-04-27T10:20:20.240Z,98484.92
2019-04-27T10:22:56.431Z,98482.61
2019-04-27T10:25:30.982Z,98483.50
2019-04-27T10:28:06.757Z,98486.31
2019-04-27T10:30:41.295Z,98481.55
2019-04-27T10:33:16.155Z,98474.72
2019-04-27T10:35:50.667Z,98473.77
2019-04-27T10:38:25.902Z,98481.70
2019-04-27T10:41:00.643Z,98476.28
2019-04-27T10:43:34.868Z,98475.69
2019-04-27T10:46:09.010Z,98465.77
2019-04-27T10:48:43.414Z,98468.90
2019-04-27T10:51:17.829Z,98471.93
2019-04-27T10:53:52.197Z,98466.68
2019-04-27T10:56:27.372Z,98474.36
2019-04-27T10:59:01.507Z,98476.80
2019-04-27T11:01:36.526Z,98471.12
2019-04-27T11:04:32.525Z,98465.91
2019-04-27T11:07:12.071Z,98470.27
2019-04-27T11:09:46.850Z,98468.61
2019-04-27T11:12:21.028Z,98465.31
2019-04-27T11:14:55.177Z,98458.75
2019-04-27T11:17:29.552Z,98468.82
2019-04-27T11:20:03.907Z,98469.41
2019-04-27T11:22:38.378Z,98468.82
2019-04-27T11:25:13.120Z,98469.67
2019-04-27T11:27:47.434Z,98455.36
2019-04-27T11:30:21.997Z,98460.63
2019-04-27T11:32:58.985Z,98454.55
2019-04-27T11:35:47.673Z,98465.77
2019-04-27T11:38:22.316Z,98460.97
2019-04-27T11:40:56.763Z,98464.03
2019-04-27T11:43:31.225Z,98465.48
2019-04-27T11:46:06.190Z,98468.20
2019-04-27T11:48:40.705Z,98472.30
2019-04-27T11:51:17.285Z,98472.00
2019-04-27T11:53:51.628Z,98464.41
2019-04-27T11:56:27.428Z,98467.91
2019-04-27T11:59:01.971Z,98468.20
2019-04-27T12:01:36.458Z,98475.28
2019-04-27T12:04:10.827Z,98472.59
2019-04-27T12:06:46.274Z,98479.09
2019-04-27T12:09:20.760Z,98477.50
2019-04-27T12:11:57.488Z,98476.36
2019-04-27T12:14:31.721Z,98480.41
2019-04-27T12:17:06.417Z,98484.55
2019-04-27T12:19:40.518Z,98480.93
2019-04-27T12:22:16.374Z,98481.44
2019-04-27T12:24:51.344Z,98485.55
2019-04-27T12:27:46.292Z,98483.70
2019-04-27T12:30:26.217Z,98484.51
2019-04-27T12:33:00.831Z,98490.86
2019-04-27T12:35:36.858Z,98494.88
2019-04-27T12:38:11.917Z,98490.27
2019-04-27T12:40:46.633Z,98495.39
2019-04-27T12:43:20.801Z,98500.64
2019-04-27T12:45:55.954Z,98492.87
2019-04-27T12:48:30.319Z,98495.69
2019-04-27T12:51:04.584Z,98501.88
2019-04-27T12:54:55.164Z,98498.53
2019-04-27T12:57:47.934Z,98498.53
2019-04-27T13:00:34.414Z,98505.44
2019-04-27T13:03:08.743Z,98507.78
2019-04-27T13:05:43.046Z,98510.23
2019-04-27T13:08:17.285Z,98511.02
2019-04-27T13:10:51.434Z,98515.41
2019-04-27T13:13:26.694Z,98515.09
2019-04-27T13:16:01.217Z,98511.89
2019-04-27T13:18:36.049Z,98524.52
2019-04-27T13:21:10.482Z,98522.95
2019-04-27T13:23:45.820Z,98525.43
2019-04-27T13:26:20.375Z,98523.03
2019-04-27T13:28:54.774Z,98528.70
2019-04-27T13:31:29.120Z,98522.60
2019-04-27T13:34:03.383Z,98534.68
2019-04-27T13:36:37.580Z,98541.64
2019-04-27T13:39:11.903Z,98544.98
2019-04-27T13:41:46.437Z,98541.43
2019-04-27T13:44:20.712Z,98543.89
2019-04-27T13:48:57.306Z,98544.42
2019-04-27T13:51:37.208Z,98544.42
2019-04-27T13:54:18.905Z,98558.38
2019-04-27T13:56:47.789Z,98555.63
2019-04-27T13:59:21.953Z,98560.28
2019-04-27T14:01:56.419Z,98566.83
2019-04-27T14:09:41.935Z,98569.84
2019-04-27T14:32:04.650Z,98569.84
2019-04-27T14:34:40.082Z,98569.84
2019-04-27T14:37:14.452Z,98600.60
2019-04-27T14:39:48.447Z,98604.93
2019-04-27T14:42:23.045Z,98603.70
2019-04-27T14:44:58.799Z,98609.09
2019-04-27T14:47:33.459Z,98618.39
2019-04-27T14:50:08.887Z,98616.95
2019-04-27T14:52:43.372Z,98621.61
2019-04-27T14:55:17.689Z,98621.30
2019-04-27T14:57:51.863Z,98627.59
2019-04-27T15:00:26.310Z,98626.48
2019-04-27T15:03:00.698Z,98627.80
2019-04-27T15:05:34.892Z,98632.47
2019-04-27T15:08:17.771Z,98639.30
2019-04-27T15:10:53.825Z,98639.30
2019-04-27T15:13:28.246Z,98641.16
2019-04-27T15:16:06.657Z,98641.14
2019-04-27T15:18:43.796Z,98639.75
2019-04-27T15:21:20.100Z,98641.92
2019-04-27T15:23:54.723Z,98646.83
2019-04-27T15:26:30.776Z,98649.00
2019-04-27T15:29:06.930Z,98652.05
2019-04-27T15:31:45.870Z,98648.44
2019-04-27T15:34:45.171Z,98654.20
2019-04-27T15:37:28.104Z,98643.94
2019-04-27T15:40:26.357Z,98643.94
2019-04-27T15:43:04.298Z,98653.80
2019-04-27T15:45:39.297Z,98654.59
2019-04-27T15:48:13.851Z,98654.30
2019-04-27T15:50:48.378Z,98657.31
2019-04-27T15:53:22.490Z,98652.59
2019-04-27T15:56:00.008Z,98657.48
2019-04-27T15:58:32.588Z,98660.52
2019-04-27T16:01:11.269Z,98659.07
2019-04-27T16:03:44.070Z,98656.11
2019-04-27T16:06:19.070Z,98653.32
2019-04-27T16:08:54.037Z,98654.34
2019-04-27T16:11:28.396Z,98661.07
2019-04-27T16:14:06.358Z,98651.15
2019-04-27T16:16:40.419Z,98660.81
2019-04-27T16:19:15.475Z,98658.33
2019-04-27T16:21:54.040Z,98667.16
2019-04-27T16:25:44.960Z,98658.26
2019-04-27T16:28:09.777Z,98658.26
2019-04-27T16:30:45.751Z,98656.30
2019-04-27T16:33:23.534Z,98659.80
2019-04-27T16:36:00.351Z,98660.08
2019-04-27T16:38:54.698Z,98658.23
2019-04-27T16:41:32.990Z,98658.94
2019-04-27T16:44:06.935Z,98664.49
